Aviation Digital Data Service (ADDS)

Output produced by METARs form (0635 UTC 27 March 2017)
found at http://www.aviationweather.gov/adds/metars/
 
TAF SKBQ 270500Z 2706/2806 36013KT 9999 FEW017 SCT200 
     TEMPO 2706/2708 8000 VCSH SCT016CB 
     TEMPO 2710/2713 5000 BCFG SCT013 
     TEMPO 2719/2722 8000 VCSH SCT017CB TX33/2718Z TN25/2711Z
       
TAF SKBO 270500Z 2706/2806 VRB02KT 9000 SCT018 SCT090 
     TEMPO 2706/2709 7000 -DZRA VCFG SCT018TCU 
     TEMPO 2709/2714 4000 DZ BCFG SCT015 
     TEMPO 2717/2723 29007KT 8000 VCSH SCT020CB 
     PROB40 2719/2722 7000 TSRA SCT018CB TX18/2718Z TN10/2711Z
       
TAF SKBG 270500Z 2706/2806 VRB02KT 9000 FEW015 BKN080 
     TEMPO 2706/2709 7000 DZRA VCFG SCT013CB 
     TEMPO 2709/2714 3000 BR -DZRA SCT007 
     TEMPO 2719/2723 32007KT 8000 DZRA SCT015TCU TX25/2718Z TN18/2711Z
       
TAF SKCL 270500Z 2706/2806 VRB02KT 9999 SCT030 SCT150 
     TEMPO 2706/2709 8000 VCFG DZRA SCT020TCU 
     TEMPO 2708/2714 4000 RA BCFG SCT015 
     TEMPO 2719/2722 32010KT 8000 SHRA SCT025TCU TX29/2719Z TN19/2711Z
       
TAF SKCG 270500Z 2706/2806 01012KT 9999 FEW017 SCT200 
     TEMPO 2706/2709 9000 VCSH SCT015CB 
     TEMPO 2710/2714 8000 VCSH SCT013 
     TEMPO 2720/2723 8000 RA SCT015CB TX31/2718Z TN25/2711Z
       
TAF SKCC 270500Z 2706/2806 VRB02KT 9000 SCT015 SCT090 
     TEMPO 2706/2708 6000 VCFG DZ SCT010 
     TEMPO 2709/2713 4000 BCFG SCT007 
     TEMPO 2719/2723 36010KT 8000 DZRA SCT018TCU TX30/2718Z TN22/2711Z
       
TAF SKLT 270500Z 2706/2806 VRB02KT 9999 FEW017 SCT200 
     TEMPO 2706/2708 4000 BCFG SCT012 
     TEMPO 2708/2713 2000 RA BR SCT012TCU 
     TEMPO 2719/2723 25005KT 8000 SHRA SCT017CB TX32/2718Z TN22/2711Z
       
TAF SKRG 270500Z 2706/2806 VRB02KT 9000 SCT015 BKN080 
     TEMPO 2706/2709 7000 RA VCFG SCT010 
     TEMPO 2709/2713 2000 BR DZ SCT007 
     TEMPO 2718/2723 27007KT 8000 VCSH SCT017CB 
     PROB40 2719/2722 7000 SHRA SCT015CB TX20/2719Z TN12/2711Z
       
TAF SKPE 270500Z 2706/2806 VRB02KT 9000 SCT015 SCT080 
     TEMPO 2706/2709 7000 VCFG DZRA SCT013 
     TEMPO 2709/2714 3000 BR SCT010 
     TEMPO 2717/2723 27007KT 8000 VCSH SCT017CB 
     PROB40 2718/2721 7000 SHRA SCT015CB TX24/2719Z TN17/2711Z
       
TAF SKSP 270500Z 2706/2806 02005KT 9999 FEW018 
     TEMPO 2709/2712 SCT015TCU 
     TEMPO 2719/2722 SCT018TCU TX30/2719Z TN25/2711Z